sensor_id;sensor_type;location;lat;lon;timestamp;pressure;altitude;pressure_sealevel;temperature;humidity
54236;BME280;40151;43.606;1.472;2023-04-15T00:00:07;99198.63;;;17.53;53.24
54236;BME280;40151;43.606;1.472;2023-04-15T00:02:34;99205.59;;;17.54;52.97
54236;BME280;40151;43.606;1.472;2023-04-15T00:05:00;99203.91;;;17.53;53.15
54236;BME280;40151;43.606;1.472;2023-04-15T00:07:25;99200.47;;;17.51;53.21
54236;BME280;40151;43.606;1.472;2023-04-15T00:09:51;99198.63;;;17.53;52.99
54236;BME280;40151;43.606;1.472;2023-04-15T00:12:19;99196.06;;;17.51;53.14
54236;BME280;40151;43.606;1.472;2023-04-15T00:14:46;99206.63;;;17.51;53.37
54236;BME280;40151;43.606;1.472;2023-04-15T00:17:11;99196.88;;;17.52;53.15
54236;BME280;40151;43.606;1.472;2023-04-15T00:19:37;99196.00;;;17.53;52.89
54236;BME280;40151;43.606;1.472;2023-04-15T00:22:02;99195.19;;;17.51;53.15
54236;BME280;40151;43.606;1.472;2023-04-15T00:24:28;99189.91;;;17.51;52.84
54236;BME280;40151;43.606;1.472;2023-04-15T00:26:54;99191.78;;;17.49;53.15
54236;BME280;40151;43.606;1.472;2023-04-15T00:29:20;99198.75;;;17.50;52.88
54236;BME280;40151;43.606;1.472;2023-04-15T00:31:45;99204.03;;;17.50;53.10
54236;BME280;40151;43.606;1.472;2023-04-15T00:34:11;99200.72;;;17.46;52.90
54236;BME280;40151;43.606;1.472;2023-04-15T00:36:37;99198.94;;;17.47;52.70
54236;BME280;40151;43.606;1.472;2023-04-15T00:39:02;99198.00;;;17.48;52.81
54236;BME280;40151;43.606;1.472;2023-04-15T00:41:27;99198.06;;;17.46;52.97
54236;BME280;40151;43.606;1.472;2023-04-15T00:43:53;99205.13;;;17.45;52.99
54236;BME280;40151;43.606;1.472;2023-04-15T00:46:19;99190.28;;;17.43;52.93
54236;BME280;40151;43.606;1.472;2023-04-15T00:48:46;99197.19;;;17.45;53.21
54236;BME280;40151;43.606;1.472;2023-04-15T00:51:12;99200.78;;;17.44;52.93
54236;BME280;40151;43.606;1.472;2023-04-15T00:53:38;99191.16;;;17.43;53.10
54236;BME280;40151;43.606;1.472;2023-04-15T00:56:04;99183.25;;;17.43;53.07
54236;BME280;40151;43.606;1.472;2023-04-15T00:58:29;99180.78;;;17.40;52.86
54236;BME280;40151;43.606;1.472;2023-04-15T01:00:55;99181.53;;;17.42;52.85
54236;BME280;40151;43.606;1.472;2023-04-15T01:03:21;99185.13;;;17.41;53.02
54236;BME280;40151;43.606;1.472;2023-04-15T01:05:47;99188.53;;;17.43;53.05
54236;BME280;40151;43.606;1.472;2023-04-15T01:08:12;99184.19;;;17.42;52.72
54236;BME280;40151;43.606;1.472;2023-04-15T01:10:39;99188.69;;;17.40;52.81
54236;BME280;40151;43.606;1.472;2023-04-15T01:13:04;99191.34;;;17.40;53.01
54236;BME280;40151;43.606;1.472;2023-04-15T01:15:30;99203.66;;;17.40;52.99
54236;BME280;40151;43.606;1.472;2023-04-15T01:17:59;99202.66;;;17.42;52.86
54236;BME280;40151;43.606;1.472;2023-04-15T01:20:25;99201.88;;;17.40;52.61
54236;BME280;40151;43.606;1.472;2023-04-15T01:22:53;99193.09;;;17.40;52.82
54236;BME280;40151;43.606;1.472;2023-04-15T01:25:31;99203.66;;;17.40;52.88
54236;BME280;40151;43.606;1.472;2023-04-15T01:27:57;99205.44;;;17.39;52.88
54236;BME280;40151;43.606;1.472;2023-04-15T01:30:23;99205.44;;;17.39;52.74
54236;BME280;40151;43.606;1.472;2023-04-15T01:32:50;99195.81;;;17.38;52.68
54236;BME280;40151;43.606;1.472;2023-04-15T01:35:15;99192.25;;;17.39;52.79
54236;BME280;40151;43.606;1.472;2023-04-15T01:37:41;99189.69;;;17.38;52.92
54236;BME280;40151;43.606;1.472;2023-04-15T01:40:07;99187.97;;;17.37;52.63
54236;BME280;40151;43.606;1.472;2023-04-15T01:42:34;99199.38;;;17.37;52.58
54236;BME280;40151;43.606;1.472;2023-04-15T01:45:00;99195.97;;;17.35;52.86
54236;BME280;40151;43.606;1.472;2023-04-15T01:47:26;99203.91;;;17.35;52.51
54236;BME280;40151;43.606;1.472;2023-04-15T01:49:52;99208.16;;;17.38;52.56
54236;BME280;40151;43.606;1.472;2023-04-15T01:52:17;99199.53;;;17.34;52.65
54236;BME280;40151;43.606;1.472;2023-04-15T01:54:42;99190.72;;;17.35;52.68
54236;BME280;40151;43.606;1.472;2023-04-15T01:57:08;99199.53;;;17.34;52.58
54236;BME280;40151;43.606;1.472;2023-04-15T01:59:34;99194.25;;;17.34;52.35
54236;BME280;40151;43.606;1.472;2023-04-15T02:02:00;99189.91;;;17.33;52.79
54236;BME280;40151;43.606;1.472;2023-04-15T02:04:26;99194.25;;;17.34;52.61
54236;BME280;40151;43.606;1.472;2023-04-15T02:06:52;99195.34;;;17.30;52.72
54236;BME280;40151;43.606;1.472;2023-04-15T02:09:17;99211.94;;;17.32;52.73
54236;BME280;40151;43.606;1.472;2023-04-15T02:11:42;99213.66;;;17.33;52.62
54236;BME280;40151;43.606;1.472;2023-04-15T02:14:09;99217.22;;;17.32;52.48
54236;BME280;40151;43.606;1.472;2023-04-15T02:16:34;99222.50;;;17.32;52.79
54236;BME280;40151;43.606;1.472;2023-04-15T02:19:00;99223.44;;;17.31;52.66
54236;BME280;40151;43.606;1.472;2023-04-15T02:21:25;99213.66;;;17.33;52.79
54236;BME280;40151;43.606;1.472;2023-04-15T02:23:51;99216.44;;;17.30;52.59
54236;BME280;40151;43.606;1.472;2023-04-15T02:26:18;99212.13;;;17.29;52.65
54236;BME280;40151;43.606;1.472;2023-04-15T02:28:45;99210.38;;;17.28;52.73
54236;BME280;40151;43.606;1.472;2023-04-15T02:31:10;99211.94;;;17.32;52.75
54236;BME280;40151;43.606;1.472;2023-04-15T02:33:36;99198.94;;;17.29;52.41
54236;BME280;40151;43.606;1.472;2023-04-15T02:36:02;99208.53;;;17.30;52.53
54236;BME280;40151;43.606;1.472;2023-04-15T02:38:27;99210.25;;;17.31;52.57
54236;BME280;40151;43.606;1.472;2023-04-15T02:40:53;99213.94;;;17.27;52.60
54236;BME280;40151;43.606;1.472;2023-04-15T02:43:19;99208.69;;;17.27;52.84
54236;BME280;40151;43.606;1.472;2023-04-15T02:45:45;99219.22;;;17.27;52.57
54236;BME280;40151;43.606;1.472;2023-04-15T02:48:11;99219.22;;;17.27;52.75
54236;BME280;40151;43.606;1.472;2023-04-15T02:50:36;99230.72;;;17.26;52.50
54236;BME280;40151;43.606;1.472;2023-04-15T02:53:05;99226.38;;;17.25;52.55
54236;BME280;40151;43.606;1.472;2023-04-15T02:55:30;99217.53;;;17.26;52.29
54236;BME280;40151;43.606;1.472;2023-04-15T02:57:56;99220.16;;;17.26;52.68
54236;BME280;40151;43.606;1.472;2023-04-15T03:00:24;99223.66;;;17.26;52.42
54236;BME280;40151;43.606;1.472;2023-04-15T03:02:50;99225.50;;;17.24;52.89
54236;BME280;40151;43.606;1.472;2023-04-15T03:05:20;99222.97;;;17.23;52.70
54236;BME280;40151;43.606;1.472;2023-04-15T03:07:47;99213.25;;;17.23;52.52
54236;BME280;40151;43.606;1.472;2023-04-15T03:10:13;99212.41;;;17.23;52.50
54236;BME280;40151;43.606;1.472;2023-04-15T03:12:38;99213.25;;;17.23;52.38
54236;BME280;40151;43.606;1.472;2023-04-15T03:15:05;99207.16;;;17.23;52.41
54236;BME280;40151;43.606;1.472;2023-04-15T03:17:30;99215.97;;;17.22;52.60
54236;BME280;40151;43.606;1.472;2023-04-15T03:19:56;99212.41;;;17.23;52.49
54236;BME280;40151;43.606;1.472;2023-04-15T03:22:21;99216.13;;;17.18;52.65
54236;BME280;40151;43.606;1.472;2023-04-15T03:24:47;99211.63;;;17.21;52.50
54236;BME280;40151;43.606;1.472;2023-04-15T03:27:12;99207.28;;;17.20;52.47
54236;BME280;40151;43.606;1.472;2023-04-15T03:29:38;99204.78;;;17.16;52.78
54236;BME280;40151;43.606;1.472;2023-04-15T03:32:03;99214.31;;;17.19;52.66
54236;BME280;40151;43.606;1.472;2023-04-15T03:34:28;99221.16;;;17.23;52.36
54236;BME280;40151;43.606;1.472;2023-04-15T03:36:55;99220.47;;;17.20;52.61
54236;BME280;40151;43.606;1.472;2023-04-15T03:39:20;99214.25;;;17.21;52.36
54236;BME280;40151;43.606;1.472;2023-04-15T03:41:46;99216.88;;;17.21;52.33
54236;BME280;40151;43.606;1.472;2023-04-15T03:44:11;99218.81;;;17.17;52.60
54236;BME280;40151;43.606;1.472;2023-04-15T03:46:36;99235.34;;;17.21;52.63
54236;BME280;40151;43.606;1.472;2023-04-15T03:49:02;99245.06;;;17.20;52.19
54236;BME280;40151;43.606;1.472;2023-04-15T03:51:27;99235.50;;;17.17;52.49
54236;BME280;40151;43.606;1.472;2023-04-15T03:53:53;99233.66;;;17.20;52.61
54236;BME280;40151;43.606;1.472;2023-04-15T03:56:18;99240.78;;;17.17;52.41
54236;BME280;40151;43.606;1.472;2023-04-15T03:58:44;99247.75;;;17.18;52.59
54236;BME280;40151;43.606;1.472;2023-04-15T04:01:09;99239.78;;;17.20;52.25
54236;BME280;40151;43.606;1.472;2023-04-15T04:03:34;99249.59;;;17.16;52.57
54236;BME280;40151;43.606;1.472;2023-04-15T04:06:01;99250.47;;;17.17;52.45
54236;BME280;40151;43.606;1.472;2023-04-15T04:08:26;99254.88;;;17.16;52.30
54236;BME280;40151;43.606;1.472;2023-04-15T04:10:52;99247.84;;;17.17;52.43
54236;BME280;40151;43.606;1.472;2023-04-15T04:13:17;99251.34;;;17.17;52.32
54236;BME280;40151;43.606;1.472;2023-04-15T04:15:42;99253.03;;;17.18;52.17
54236;BME280;40151;43.606;1.472;2023-04-15T04:18:08;99247.75;;;17.18;52.23
54236;BME280;40151;43.606;1.472;2023-04-15T04:20:33;99247.91;;;17.15;52.44
54236;BME280;40151;43.606;1.472;2023-04-15T04:22:59;99249.69;;;17.15;52.35
54236;BME280;40151;43.606;1.472;2023-04-15T04:25:24;99246.97;;;17.16;52.32
54236;BME280;40151;43.606;1.472;2023-04-15T04:27:50;99232.00;;;17.17;52.39
54236;BME280;40151;43.606;1.472;2023-04-15T04:30:15;99245.25;;;17.15;52.19
54236;BME280;40151;43.606;1.472;2023-04-15T04:32:41;99254.03;;;17.16;52.09
54236;BME280;40151;43.606;1.472;2023-04-15T04:35:06;99254.88;;;17.16;52.38
54236;BME280;40151;43.606;1.472;2023-04-15T04:37:32;99248.75;;;17.16;52.42
54236;BME280;40151;43.606;1.472;2023-04-15T04:39:58;99247.91;;;17.15;52.38
54236;BME280;40151;43.606;1.472;2023-04-15T04:42:23;99262.00;;;17.14;52.44
54236;BME280;40151;43.606;1.472;2023-04-15T04:44:49;99265.59;;;17.13;52.17
54236;BME280;40151;43.606;1.472;2023-04-15T04:47:14;99269.84;;;17.16;52.17
54236;BME280;40151;43.606;1.472;2023-04-15T04:49:39;99266.34;;;17.15;52.27
54236;BME280;40151;43.606;1.472;2023-04-15T04:52:05;99263.88;;;17.12;52.16
54236;BME280;40151;43.606;1.472;2023-04-15T04:54:31;99262.09;;;17.13;52.39
54236;BME280;40151;43.606;1.472;2023-04-15T04:56:57;99263.00;;;17.12;52.45
54236;BME280;40151;43.606;1.472;2023-04-15T04:59:23;99265.72;;;17.10;52.44
54236;BME280;40151;43.606;1.472;2023-04-15T05:01:48;99266.50;;;17.12;52.35
54236;BME280;40151;43.606;1.472;2023-04-15T05:04:14;99270.84;;;17.13;52.11
54236;BME280;40151;43.606;1.472;2023-04-15T05:06:39;99271.00;;;17.10;52.47
54236;BME280;40151;43.606;1.472;2023-04-15T05:09:05;99278.91;;;17.10;52.34
54236;BME280;40151;43.606;1.472;2023-04-15T05:11:30;99279.75;;;17.11;52.29
54236;BME280;40151;43.606;1.472;2023-04-15T05:13:56;99283.16;;;17.13;52.35
54236;BME280;40151;43.606;1.472;2023-04-15T05:16:22;99280.69;;;17.10;52.11
54236;BME280;40151;43.606;1.472;2023-04-15T05:18:47;99297.34;;;17.10;52.33
54236;BME280;40151;43.606;1.472;2023-04-15T05:21:13;99282.41;;;17.11;52.24
54236;BME280;40151;43.606;1.472;2023-04-15T05:23:38;99284.09;;;17.12;52.53
54236;BME280;40151;43.606;1.472;2023-04-15T05:26:04;99289.38;;;17.12;52.16
54236;BME280;40151;43.606;1.472;2023-04-15T05:28:29;99302.63;;;17.10;52.32
54236;BME280;40151;43.606;1.472;2023-04-15T05:30:55;99292.94;;;17.11;52.36
54236;BME280;40151;43.606;1.472;2023-04-15T05:33:20;99292.19;;;17.09;52.37
54236;BME280;40151;43.606;1.472;2023-04-15T05:35:46;99287.75;;;17.09;52.30
54236;BME280;40151;43.606;1.472;2023-04-15T05:38:11;99305.44;;;17.07;52.34
54236;BME280;40151;43.606;1.472;2023-04-15T05:40:37;99309.75;;;17.08;52.54
54236;BME280;40151;43.606;1.472;2023-04-15T05:43:02;99317.66;;;17.08;52.19
54236;BME280;40151;43.606;1.472;2023-04-15T05:45:28;99321.19;;;17.09;52.14
54236;BME280;40151;43.606;1.472;2023-04-15T05:47:53;99319.44;;;17.08;52.11
54236;BME280;40151;43.606;1.472;2023-04-15T05:50:19;99315.09;;;17.07;52.12
54236;BME280;40151;43.606;1.472;2023-04-15T05:52:45;99316.91;;;17.06;52.41
54236;BME280;40151;43.606;1.472;2023-04-15T05:55:10;99321.38;;;17.04;52.14
54236;BME280;40151;43.606;1.472;2023-04-15T05:57:36;99324.13;;;17.01;52.50
54236;BME280;40151;43.606;1.472;2023-04-15T06:00:03;99320.56;;;17.02;52.28
54236;BME280;40151;43.606;1.472;2023-04-15T06:02:29;99324.13;;;17.01;52.47
54236;BME280;40151;43.606;1.472;2023-04-15T06:04:55;99328.47;;;17.02;52.56
54236;BME280;40151;43.606;1.472;2023-04-15T06:07:22;99326.78;;;17.01;52.24
54236;BME280;40151;43.606;1.472;2023-04-15T06:09:47;99330.22;;;17.03;52.16
54236;BME280;40151;43.606;1.472;2023-04-15T06:12:13;99344.25;;;17.03;52.40
54236;BME280;40151;43.606;1.472;2023-04-15T06:14:39;99337.28;;;17.02;52.25
54236;BME280;40151;43.606;1.472;2023-04-15T06:17:05;99345.22;;;17.01;52.21
54236;BME280;40151;43.606;1.472;2023-04-15T06:19:31;99341.66;;;17.02;52.37
54236;BME280;40151;43.606;1.472;2023-04-15T06:21:57;99359.34;;;17.00;52.48
54236;BME280;40151;43.606;1.472;2023-04-15T06:24:23;99369.88;;;17.00;52.53
54236;BME280;40151;43.606;1.472;2023-04-15T06:26:48;99369.88;;;17.00;52.55
54236;BME280;40151;43.606;1.472;2023-04-15T06:29:13;99390.03;;;17.01;52.30
54236;BME280;40151;43.606;1.472;2023-04-15T06:31:39;99405.84;;;17.01;52.38
54236;BME280;40151;43.606;1.472;2023-04-15T06:34:05;99413.88;;;16.98;52.42
54236;BME280;40151;43.606;1.472;2023-04-15T06:36:30;99408.63;;;16.98;52.59
54236;BME280;40151;43.606;1.472;2023-04-15T06:38:56;99417.44;;;16.97;52.41
54236;BME280;40151;43.606;1.472;2023-04-15T06:41:22;99433.25;;;16.97;52.77
54236;BME280;40151;43.606;1.472;2023-04-15T06:43:47;99430.63;;;16.97;52.40
54236;BME280;40151;43.606;1.472;2023-04-15T06:46:13;99429.69;;;16.98;52.60
54236;BME280;40151;43.606;1.472;2023-04-15T06:48:38;99442.09;;;16.96;52.56
54236;BME280;40151;43.606;1.472;2023-04-15T06:51:04;99443.81;;;16.97;52.57
54236;BME280;40151;43.606;1.472;2023-04-15T06:53:29;99443.81;;;16.97;52.60
54236;BME280;40151;43.606;1.472;2023-04-15T06:55:55;99447.38;;;16.96;52.46
54236;BME280;40151;43.606;1.472;2023-04-15T06:58:20;99443.97;;;16.94;52.63
54236;BME280;40151;43.606;1.472;2023-04-15T07:00:46;99451.88;;;16.94;52.36
54236;BME280;40151;43.606;1.472;2023-04-15T07:03:12;99446.59;;;16.94;52.69
54236;BME280;40151;43.606;1.472;2023-04-15T07:05:38;99443.97;;;16.94;52.61
54236;BME280;40151;43.606;1.472;2023-04-15T07:08:04;99459.78;;;16.94;52.52
54236;BME280;40151;43.606;1.472;2023-04-15T07:10:30;99457.19;;;16.92;52.65
54236;BME280;40151;43.606;1.472;2023-04-15T07:12:55;99460.66;;;16.92;52.38
54236;BME280;40151;43.606;1.472;2023-04-15T07:15:21;99463.25;;;16.94;52.75
54236;BME280;40151;43.606;1.472;2023-04-15T07:17:47;99468.59;;;16.92;52.63
54236;BME280;40151;43.606;1.472;2023-04-15T07:20:13;99465.03;;;16.94;52.57
54236;BME280;40151;43.606;1.472;2023-04-15T07:22:38;99464.06;;;16.96;52.26
54236;BME280;40151;43.606;1.472;2023-04-15T07:25:04;99475.44;;;16.97;52.33
54236;BME280;40151;43.606;1.472;2023-04-15T07:27:30;99475.50;;;16.95;52.57
54236;BME280;40151;43.606;1.472;2023-04-15T07:29:56;99474.66;;;16.95;52.58
54236;BME280;40151;43.606;1.472;2023-04-15T07:32:21;99465.88;;;16.94;52.33
54236;BME280;40151;43.606;1.472;2023-04-15T07:34:46;99474.59;;;16.96;52.43
54236;BME280;40151;43.606;1.472;2023-04-15T07:37:12;99470.16;;;16.97;52.60
54236;BME280;40151;43.606;1.472;2023-04-15T07:39:37;99470.16;;;16.97;52.54
54236;BME280;40151;43.606;1.472;2023-04-15T07:42:03;99479.00;;;16.96;52.79
54236;BME280;40151;43.606;1.472;2023-04-15T07:44:28;99480.72;;;16.97;52.38
54236;BME280;40151;43.606;1.472;2023-04-15T07:46:55;99475.44;;;16.97;52.58
54236;BME280;40151;43.606;1.472;2023-04-15T07:49:20;99476.31;;;16.97;52.60
54236;BME280;40151;43.606;1.472;2023-04-15T07:51:46;99480.59;;;17.00;52.62
54236;BME280;40151;43.606;1.472;2023-04-15T07:54:13;99477.97;;;17.00;52.23
54236;BME280;40151;43.606;1.472;2023-04-15T07:56:38;99480.47;;;17.03;52.44
54236;BME280;40151;43.606;1.472;2023-04-15T07:59:08;99475.19;;;17.03;52.24
54236;BME280;40151;43.606;1.472;2023-04-15T08:01:34;99485.75;;;17.03;52.48
54236;BME280;40151;43.606;1.472;2023-04-15T08:04:00;99476.06;;;17.03;52.23
54236;BME280;40151;43.606;1.472;2023-04-15T08:06:26;99489.19;;;17.05;52.40
54236;BME280;40151;43.606;1.472;2023-04-15T08:08:52;99480.34;;;17.06;52.60
54236;BME280;40151;43.606;1.472;2023-04-15T08:11:19;99479.47;;;17.06;52.48
54236;BME280;40151;43.606;1.472;2023-04-15T08:13:47;99485.47;;;17.09;52.45
54236;BME280;40151;43.606;1.472;2023-04-15T08:16:17;99489.03;;;17.08;52.18
54236;BME280;40151;43.606;1.472;2023-04-15T08:18:46;99502.16;;;17.10;52.43
54236;BME280;40151;43.606;1.472;2023-04-15T08:21:12;99501.28;;;17.09;52.63
54236;BME280;40151;43.606;1.472;2023-04-15T08:23:38;99511.84;;;17.09;52.34
54236;BME280;40151;43.606;1.472;2023-04-15T08:26:04;99501.19;;;17.12;52.30
54236;BME280;40151;43.606;1.472;2023-04-15T08:28:29;99504.81;;;17.10;52.29
54236;BME280;40151;43.606;1.472;2023-04-15T08:30:55;99503.00;;;17.10;52.38
54236;BME280;40151;43.606;1.472;2023-04-15T08:33:21;99499.47;;;17.11;52.36
54236;BME280;40151;43.606;1.472;2023-04-15T08:35:48;99501.22;;;17.11;52.51
54236;BME280;40151;43.606;1.472;2023-04-15T08:38:13;99503.81;;;17.12;52.39
54236;BME280;40151;43.606;1.472;2023-04-15T08:40:43;99502.81;;;17.15;52.51
54236;BME280;40151;43.606;1.472;2023-04-15T08:43:20;99509.88;;;17.14;52.30
54236;BME280;40151;43.606;1.472;2023-04-15T08:45:47;99524.75;;;17.15;52.48
54236;BME280;40151;43.606;1.472;2023-04-15T08:48:16;99520.41;;;17.14;52.30
54236;BME280;40151;43.606;1.472;2023-04-15T08:50:42;99523.81;;;17.16;52.19
54236;BME280;40151;43.606;1.472;2023-04-15T08:53:08;99519.47;;;17.15;52.21
54236;BME280;40151;43.606;1.472;2023-04-15T08:55:35;99518.56;;;17.16;52.47
54236;BME280;40151;43.606;1.472;2023-04-15T08:58:04;99512.38;;;17.17;52.41
54236;BME280;40151;43.606;1.472;2023-04-15T09:00:31;99532.53;;;17.18;52.32
54236;BME280;40151;43.606;1.472;2023-04-15T09:02:58;99524.47;;;17.22;52.32
54236;BME280;40151;43.606;1.472;2023-04-15T09:05:23;99537.75;;;17.20;51.74
54236;BME280;40151;43.606;1.472;2023-04-15T09:07:50;99539.25;;;17.26;52.36
54236;BME280;40151;43.606;1.472;2023-04-15T09:10:15;99542.03;;;17.23;52.27
54236;BME280;40151;43.606;1.472;2023-04-15T09:12:41;99530.41;;;17.27;52.28
54236;BME280;40151;43.606;1.472;2023-04-15T09:15:11;99534.69;;;17.29;53.04
54236;BME280;40151;43.606;1.472;2023-04-15T09:17:42;99535.41;;;17.33;52.93
54236;BME280;40151;43.606;1.472;2023-04-15T09:20:13;99544.13;;;17.35;53.66
54236;BME280;40151;43.606;1.472;2023-04-15T09:22:40;99557.31;;;17.35;53.54
54236;BME280;40151;43.606;1.472;2023-04-15T09:25:26;99543.25;;;17.35;53.24
54236;BME280;40151;43.606;1.472;2023-04-15T09:27:57;99549.25;;;17.38;53.22
54236;BME280;40151;43.606;1.472;2023-04-15T09:30:24;99548.41;;;17.38;53.34
54236;BME280;40151;43.606;1.472;2023-04-15T09:32:54;99549.25;;;17.38;53.33
54236;BME280;40151;43.606;1.472;2023-04-15T09:35:21;99550.84;;;17.42;53.56
54236;BME280;40151;43.606;1.472;2023-04-15T09:37:47;99552.69;;;17.40;53.67
54236;BME280;40151;43.606;1.472;2023-04-15T09:40:13;99564.03;;;17.42;53.89
54236;BME280;40151;43.606;1.472;2023-04-15T09:42:59;99562.06;;;17.48;53.45
54236;BME280;40151;43.606;1.472;2023-04-15T09:45:26;99578.66;;;17.50;53.65
54236;BME280;40151;43.606;1.472;2023-04-15T09:47:51;99565.25;;;17.54;53.46
54236;BME280;40151;43.606;1.472;2023-04-15T09:50:19;99566.25;;;17.52;53.54
54236;BME280;40151;43.606;1.472;2023-04-15T09:52:45;99567.09;;;17.52;53.05
54236;BME280;40151;43.606;1.472;2023-04-15T09:55:12;99560.84;;;17.55;53.25
54236;BME280;40151;43.606;1.472;2023-04-15T09:57:38;99565.13;;;17.57;52.83
54236;BME280;40151;43.606;1.472;2023-04-15T10:00:07;99559.69;;;17.61;52.64
54236;BME280;40151;43.606;1.472;2023-04-15T10:02:33;99559.78;;;17.59;52.46
54236;BME280;40151;43.606;1.472;2023-04-15T10:05:00;99562.44;;;17.59;52.32
54236;BME280;40151;43.606;1.472;2023-04-15T10:07:26;99562.28;;;17.62;52.01
54236;BME280;40151;43.606;1.472;2023-04-15T10:09:52;99567.56;;;17.62;51.93
54236;BME280;40151;43.606;1.472;2023-04-15T10:12:19;99565.84;;;17.61;51.93
54236;BME280;40151;43.606;1.472;2023-04-15T10:14:51;99574.53;;;17.63;51.88
54236;BME280;40151;43.606;1.472;2023-04-15T10:17:21;99564.13;;;17.60;51.48
54236;BME280;40151;43.606;1.472;2023-04-15T10:19:47;99562.44;;;17.59;51.61
54236;BME280;40151;43.606;1.472;2023-04-15T10:22:14;99572.06;;;17.60;51.31
54236;BME280;40151;43.606;1.472;2023-04-15T10:24:39;99572.81;;;17.62;51.43
54236;BME280;40151;43.606;1.472;2023-04-15T10:27:05;99568.41;;;17.63;51.27
54236;BME280;40151;43.606;1.472;2023-04-15T10:29:31;99570.19;;;17.62;51.33
54236;BME280;40151;43.606;1.472;2023-04-15T10:31:58;99574.53;;;17.63;51.45
54236;BME280;40151;43.606;1.472;2023-04-15T10:34:24;99575.47;;;17.62;51.24
54236;BME280;40151;43.606;1.472;2023-04-15T10:36:50;99579.81;;;17.63;51.34
54236;BME280;40151;43.606;1.472;2023-04-15T10:42:10;99584.81;;;17.69;51.41
54236;BME280;40151;43.606;1.472;2023-04-15T10:44:41;99574.25;;;17.69;51.05
54236;BME280;40151;43.606;1.472;2023-04-15T10:47:14;99588.25;;;17.71;51.09
54236;BME280;40151;43.606;1.472;2023-04-15T10:49:57;99588.25;;;17.71;51.17
54236;BME280;40151;43.606;1.472;2023-04-15T10:52:25;99579.41;;;17.73;51.03
54236;BME280;40151;43.606;1.472;2023-04-15T10:57:39;99577.69;;;17.71;51.31
54236;BME280;40151;43.606;1.472;2023-04-15T11:05:16;99570.56;;;17.74;50.88
54236;BME280;40151;43.606;1.472;2023-04-15T11:12:39;99579.34;;;17.74;51.10
54236;BME280;40151;43.606;1.472;2023-04-15T11:18:22;99581.00;;;17.77;50.96
54236;BME280;40151;43.606;1.472;2023-04-15T11:20:49;99582.69;;;17.78;50.73
54236;BME280;40151;43.606;1.472;2023-04-15T11:23:17;99572.13;;;17.78;50.72
54236;BME280;40151;43.606;1.472;2023-04-15T11:25:43;99584.41;;;17.79;51.01
54236;BME280;40151;43.606;1.472;2023-04-15T11:28:10;99584.28;;;17.82;50.68
54236;BME280;40151;43.606;1.472;2023-04-15T11:30:36;99589.56;;;17.82;51.06
54236;BME280;40151;43.606;1.472;2023-04-15T11:33:04;99586.91;;;17.82;50.91
54236;BME280;40151;43.606;1.472;2023-04-15T11:35:30;99577.13;;;17.84;50.95
54236;BME280;40151;43.606;1.472;2023-04-15T11:37:55;99586.75;;;17.85;50.90
54236;BME280;40151;43.606;1.472;2023-04-15T11:40:26;99586.69;;;17.87;51.27
54236;BME280;40151;43.606;1.472;2023-04-15T11:43:26;99584.00;;;17.88;51.60
54236;BME280;40151;43.606;1.472;2023-04-15T11:45:54;99582.13;;;17.90;51.73
54236;BME280;40151;43.606;1.472;2023-04-15T11:48:33;99579.50;;;17.90;51.88
54236;BME280;40151;43.606;1.472;2023-04-15T11:53:55;99582.91;;;17.92;51.90
54236;BME280;40151;43.606;1.472;2023-04-15T11:56:24;99581.97;;;17.93;51.89
54236;BME280;40151;43.606;1.472;2023-04-15T11:58:55;99578.44;;;17.94;51.94
54236;BME280;40151;43.606;1.472;2023-04-15T12:01:30;99588.00;;;17.97;51.78
54236;BME280;40151;43.606;1.472;2023-04-15T12:03:56;99592.41;;;17.96;52.20
54236;BME280;40151;43.606;1.472;2023-04-15T12:06:24;99603.75;;;17.98;52.26
54236;BME280;40151;43.606;1.472;2023-04-15T12:09:09;99590.53;;;17.98;51.89
54236;BME280;40151;43.606;1.472;2023-04-15T12:11:46;99601.97;;;17.99;52.50
54236;BME280;40151;43.606;1.472;2023-04-15T12:14:15;99594.00;;;18.01;52.15
54236;BME280;40151;43.606;1.472;2023-04-15T12:16:52;99598.41;;;18.00;52.05
54236;BME280;40151;43.606;1.472;2023-04-15T12:19:26;99598.34;;;18.02;52.09
54236;BME280;40151;43.606;1.472;2023-04-15T12:21:56;99596.53;;;18.02;51.88
54236;BME280;40151;43.606;1.472;2023-04-15T12:24:23;99609.66;;;18.04;51.72
54236;BME280;40151;43.606;1.472;2023-04-15T12:26:53;99602.59;;;18.06;51.96
54236;BME280;40151;43.606;1.472;2023-04-15T12:29:20;99603.47;;;18.05;51.74
54236;BME280;40151;43.606;1.472;2023-04-15T12:31:51;99604.28;;;18.07;51.72
54236;BME280;40151;43.606;1.472;2023-04-15T12:34:18;99610.34;;;18.09;51.75
54236;BME280;40151;43.606;1.472;2023-04-15T12:36:49;99606.00;;;18.08;51.77
54236;BME280;40151;43.606;1.472;2023-04-15T12:39:15;99590.16;;;18.08;51.51
54236;BME280;40151;43.606;1.472;2023-04-15T12:41:41;99605.94;;;18.09;51.70
54236;BME280;40151;43.606;1.472;2023-04-15T12:44:06;99609.41;;;18.10;51.77
54236;BME280;40151;43.606;1.472;2023-04-15T12:46:32;99612.88;;;18.12;51.47
54236;BME280;40151;43.606;1.472;2023-04-15T12:48:59;99612.00;;;18.11;51.61
54236;BME280;40151;43.606;1.472;2023-04-15T12:51:24;99606.66;;;18.13;51.73
54236;BME280;40151;43.606;1.472;2023-04-15T12:53:51;99609.28;;;18.13;51.65
54236;BME280;40151;43.606;1.472;2023-04-15T12:56:16;99610.06;;;18.15;51.65
54236;BME280;40151;43.606;1.472;2023-04-15T12:58:42;99617.06;;;18.16;51.57
54236;BME280;40151;43.606;1.472;2023-04-15T13:01:08;99611.78;;;18.16;51.30
54236;BME280;40151;43.606;1.472;2023-04-15T13:03:34;99619.63;;;18.18;51.30
54236;BME280;40151;43.606;1.472;2023-04-15T13:05:59;99608.13;;;18.19;51.40
54236;BME280;40151;43.606;1.472;2023-04-15T13:08:26;99591.44;;;18.18;51.61
54236;BME280;40151;43.606;1.472;2023-04-15T13:10:52;99623.97;;;18.19;51.56
54236;BME280;40151;43.606;1.472;2023-04-15T13:13:17;99632.72;;;18.21;51.31
54236;BME280;40151;43.606;1.472;2023-04-15T13:15:43;99624.84;;;18.19;51.33
54236;BME280;40151;43.606;1.472;2023-04-15T13:18:10;99633.53;;;18.21;51.45